• Join FlightAware (Why Join?)
  • Login
  • US Flag 
05:19AM EDT


 

Airport Tracker/Info


-or-


 

Live Flight TrackerFlight Track Log ✈ KAP624 ✈ 18-Jun-2013 ✈ KBOS - KACK

Flight Track Log - Related Links

Times and Time Zones

All times are in EDT time to prevent confusion due to time zone crossing. See the KAP624 flight status page for this flight to view local times or setup timezone preferences in your user account.

Time Position Orientation Groundspeed Altitude Reporting Facility
EDT Latitude Longitude Course Direction KTS MPH feet Rate Location/Type
01:43PM 42.3500 -71.0000 114° Southeast 94 108 400  Level KA90
01:44PM 42.3333 -70.9500 114° Southeast 121 139 1,300 720 Climbing KA90
01:45PM 42.3167 -70.9000 114° Southeast 123 142 2,000 720 Climbing KA90
01:46PM 42.3000 -70.8667 124° Southeast 131 151 2,800 720 Climbing KA90
01:47PM 42.2833 -70.8167 114° Southeast 135 155 3,500 600 Climbing KA90
01:48PM 42.2500 -70.8000 160° South 138 159 4,000 540 Climbing KA90
01:49PM 42.2167 -70.7667 143° Southeast 138 159 4,600 420 Climbing KA90
01:50PM 42.1833 -70.7500 160° South 141 162 4,900 180 Climbing KA90
01:51PM 42.1500 -70.7167 143° Southeast 156 180 5,000  Climbing KA90
01:52PM 42.1000 -70.6833 154° Southeast 157 181 5,000  Level KA90
01:53PM 42.0667 -70.6667 160° South 160 184 5,000  Level KA90
01:54PM 42.0333 -70.6333 143° Southeast 160 184 5,000  Level KA90
01:56PM 41.9914 -70.6021 151° Southeast  Level Estimated
02:03PM 41.7593 -70.4303 151° Southeast  Level Estimated
02:04PM 41.7262 -70.4058 151° Southeast  Level Estimated
02:05PM 41.6930 -70.3814 151° Southeast  Level Estimated
02:06PM 41.6598 -70.3570 151° Southeast  Level Estimated
02:07PM 41.6266 -70.3326 151° Southeast  Level Estimated
02:08PM 41.5934 -70.3083 151° Southeast  Level Estimated
02:09PM 41.5603 -70.2840 151° Southeast  Level Estimated
02:10PM 41.5271 -70.2597 151° Southeast  Level Estimated
02:11PM 41.4939 -70.2354 151° Southeast  Level Estimated
02:12PM 41.4607 -70.2112 151° Southeast  Level Estimated
02:13PM 41.4274 -70.1870 151° Southeast  Level Estimated
02:14PM 41.3942 -70.1628 151° Southeast  Level Estimated
02:15PM 41.3610 -70.1386 151° Southeast  Level Estimated
02:16PM 41.3278 -70.1144 151° Southeast  Level Estimated
02:17PM 41.2945 -70.0903 151° Southeast  Level Estimated
02:18PM 41.2613 -70.0662 151° Southeast  Level Estimated
02:19PM 41.2531 -70.0603 151° Southeast  Level Estimated
02:20PM 41.2531 -70.0603 72° East  Level Estimated
02:21PM 41.2531 -70.0603 72° East  Level Estimated
02:22PM 41.2531 -70.0603 72° East  Level Estimated
02:23PM 41.2531 -70.0603 72° East  Level Estimated